Sanders, Montana
Current Conditions -  °F | °C
As of 5:53 PM on Friday 24 Oct 2014 (Local Time) from KMLS Reporting Station
Broken Clouds Broken Clouds  
Wind Chill: 57°   Ceiling: 11000
Heat Index: 57°   Visibility: 10mi
Dew Point: 32°   Wind: 0mph
Humidity: 39%   Direction: NA
Pressure: 30.06"   Gusts: NA
Location:  46.29°N, 107.1°W
Report Text: KMLS 242353Z AUTO 00000KT 10SM SCT075 BKN110 14/00 A3006 RMK AO2 SLP185 T01390000 10161 20139 51008
Loading
Personal Weather Stations






























Interactive Weather Map
Tropical Storm Tracking
New forecast layout! Learn more

10-Day Weather Forecast

Advertisements
Track Severe Weather on mobile